Time;durP1;ratioP1;P1;durP2;ratioP2;P2;SDS_P1;SDS_P2;PMS_P1;PMS_P2;Temp;Humidity;BMP_temperature;BMP_pressure;BME280_temperature;BME280_humidity;BME280_pressure;Samples;Min_cycle;Max_cycle;Signal;HPM_P1;HPM_P2
2022/12/16 00:01:31;;;;;;;33.22;19.50;;;;;;;1.97;84.07;96809.63;4126018;28;20208;-91
2022/12/16 00:03:34;;;;;;;32.25;18.48;;;;;;;1.97;84.60;96809.63;4112307;28;20208;-91
2022/12/16 00:05:38;;;;;;;30.90;18.60;;;;;;;1.95;83.95;96806.31;4107720;28;20297;-91
2022/12/16 00:07:48;;;;;;;30.52;18.73;;;;;;;2.00;83.95;96815.44;4109671;28;20220;-92
2022/12/16 00:09:51;;;;;;;33.67;19.88;;;;;;;1.99;84.23;96818.94;4106906;28;20859;-91
2022/12/16 00:11:54;;;;;;;31.52;19.60;;;;;;;2.00;84.57;96823.16;4109456;28;20283;-91
2022/12/16 00:13:57;;;;;;;33.83;19.23;;;;;;;2.03;83.83;96819.56;4112412;28;20670;-91
2022/12/16 00:16:05;;;;;;;32.10;17.90;;;;;;;2.06;84.08;96824.53;4128082;28;20208;-91
2022/12/16 00:18:08;;;;;;;32.05;18.42;;;;;;;2.05;83.76;96817.78;4132865;28;20685;-91
2022/12/16 00:20:12;;;;;;;30.65;18.75;;;;;;;2.03;83.57;96824.72;4128374;28;20204;-92
2022/12/16 00:22:15;;;;;;;30.48;18.17;;;;;;;2.03;83.77;96809.28;4121685;28;20235;-91
2022/12/16 00:24:20;;;;;;;31.77;18.58;;;;;;;2.07;83.69;96821.88;4128037;28;20724;-91
2022/12/16 00:26:23;;;;;;;31.73;18.25;;;;;;;2.07;84.39;96816.75;4127762;28;20576;-91
2022/12/16 00:28:26;;;;;;;27.95;17.70;;;;;;;2.07;85.09;96819.31;4129096;28;20220;-91
2022/12/16 00:30:29;;;;;;;32.35;19.08;;;;;;;2.10;84.80;96826.03;4139716;28;20211;-92
2022/12/16 00:32:33;;;;;;;28.95;18.50;;;;;;;2.07;84.32;96821.06;4126324;28;20212;-91
2022/12/16 00:34:36;;;;;;;30.38;19.10;;;;;;;2.09;84.25;96819.22;4109952;28;20224;-92
2022/12/16 00:36:39;;;;;;;33.03;21.38;;;;;;;2.06;84.52;96816.84;4105572;28;20696;-91
2022/12/16 00:38:42;;;;;;;29.50;19.23;;;;;;;2.10;84.40;96818.34;4118378;28;20207;-92
2022/12/16 00:40:47;;;;;;;29.23;18.40;;;;;;;2.09;84.82;96814.94;4118638;28;20215;-91
2022/12/16 00:42:50;;;;;;;34.33;20.15;;;;;;;2.10;85.08;96815.75;4123262;28;20201;-92
2022/12/16 00:44:54;;;;;;;35.25;20.15;;;;;;;2.09;85.15;96811.53;4128611;28;20208;-91
2022/12/16 00:46:57;;;;;;;37.78;19.98;;;;;;;2.09;85.22;96819.22;4125334;28;20251;-92
2022/12/16 00:49:00;;;;;;;28.98;18.00;;;;;;;2.09;84.77;96814.94;4127148;28;20208;-91
2022/12/16 00:51:04;;;;;;;33.47;20.08;;;;;;;2.11;85.41;96818.25;4129162;28;20270;-91
2022/12/16 00:53:07;;;;;;;33.15;18.45;;;;;;;2.13;85.06;96831.84;4111522;28;20211;-93
2022/12/16 00:55:10;;;;;;;31.90;19.20;;;;;;;2.11;85.32;96825.13;4125987;28;20215;-91
2022/12/16 00:57:15;;;;;;;31.30;18.83;;;;;;;2.10;85.40;96826.03;4121434;28;20204;-91
2022/12/16 00:59:18;;;;;;;30.63;18.63;;;;;;;2.09;85.39;96830.38;4123891;28;20212;-91
2022/12/16 01:01:21;;;;;;;30.48;18.15;;;;;;;2.12;85.55;96837.06;4124689;28;20209;-92
2022/12/16 01:03:25;;;;;;;29.60;19.38;;;;;;;2.11;85.43;96843.13;4127072;28;20219;-91
2022/12/16 01:05:28;;;;;;;32.67;19.48;;;;;;;2.10;86.19;96847.44;4109811;28;20216;-91
2022/12/16 01:07:31;;;;;;;28.77;17.67;;;;;;;2.13;85.87;96846.44;4127916;28;20691;-91
2022/12/16 01:09:34;;;;;;;30.73;19.45;;;;;;;2.12;85.92;96840.47;4124577;28;20220;-92
2022/12/16 01:11:37;;;;;;;27.80;18.25;;;;;;;2.13;86.02;96844.69;4126235;28;20210;-91
2022/12/16 01:13:42;;;;;;;32.33;19.70;;;;;;;2.10;85.97;96842.28;4110110;28;20296;-91
2022/12/16 01:15:45;;;;;;;32.95;19.77;;;;;;;2.11;85.89;96848.28;4124285;28;20559;-92
2022/12/16 01:17:48;;;;;;;28.90;18.35;;;;;;;2.09;86.28;96847.50;4124694;28;20212;-91
2022/12/16 01:19:51;;;;;;;28.20;18.17;;;;;;;2.10;85.72;96856.88;4107380;28;20205;-92
2022/12/16 01:21:54;;;;;;;31.40;19.25;;;;;;;2.06;86.22;96856.25;4105967;28;20246;-91
2022/12/16 01:23:58;;;;;;;32.60;19.65;;;;;;;2.08;86.58;96858.72;4129974;28;20196;-92
2022/12/16 01:26:02;;;;;;;31.75;19.50;;;;;;;2.09;86.43;96860.38;4130557;28;20216;-92
2022/12/16 01:28:05;;;;;;;30.77;18.75;;;;;;;2.08;86.50;96859.53;4129177;28;20311;-91
2022/12/16 01:30:12;;;;;;;37.17;21.65;;;;;;;2.08;86.67;96863.88;4126733;28;20215;-91
2022/12/16 01:32:16;;;;;;;29.50;18.08;;;;;;;2.13;86.46;96877.28;4124599;28;20679;-92
2022/12/16 01:34:19;;;;;;;31.10;19.70;;;;;;;2.11;86.45;96869.66;4110314;28;20209;-91
2022/12/16 01:36:22;;;;;;;30.52;18.70;;;;;;;2.13;86.10;96867.00;4113452;28;20743;-92
2022/12/16 01:38:25;;;;;;;32.63;18.80;;;;;;;2.12;85.98;96875.63;4112925;28;21666;-92
2022/12/16 01:40:29;;;;;;;28.83;18.63;;;;;;;2.05;85.76;96869.19;4130848;28;20715;-92
2022/12/16 01:42:33;;;;;;;35.10;19.75;;;;;;;2.05;85.71;96864.03;4110986;28;20209;-92
2022/12/16 01:44:36;;;;;;;31.20;19.23;;;;;;;2.03;85.35;96870.97;4129572;28;20569;-92
2022/12/16 01:46:42;;;;;;;27.73;17.52;;;;;;;1.99;85.68;96861.81;4112457;28;20622;-92
2022/12/16 01:48:47;;;;;;;29.63;18.05;;;;;;;1.96;86.00;96860.22;4128314;28;20204;-91
2022/12/16 01:50:56;;;;;;;31.95;19.38;;;;;;;1.93;85.29;96857.81;4109940;28;20197;-92
2022/12/16 01:53:01;;;;;;;33.75;20.20;;;;;;;1.97;86.43;96872.16;4114867;28;20209;-92
2022/12/16 01:55:07;;;;;;;34.40;20.20;;;;;;;1.99;86.39;96875.47;4110752;28;20204;-91
2022/12/16 01:57:14;;;;;;;34.40;19.55;;;;;;;1.96;86.71;96869.69;4129717;28;20574;-92
2022/12/16 01:59:17;;;;;;;31.33;20.10;;;;;;;1.95;86.55;96865.44;4142638;28;20246;-91
2022/12/16 02:01:21;;;;;;;32.97;19.85;;;;;;;1.91;86.35;96876.81;4142314;28;20208;-91
2022/12/16 02:03:27;;;;;;;29.77;18.88;;;;;;;1.95;86.51;96881.69;4127816;28;20251;-91
2022/12/16 02:05:30;;;;;;;33.13;20.50;;;;;;;1.95;86.88;96883.44;4129827;28;20207;-91
2022/12/16 02:07:34;;;;;;;35.72;21.38;;;;;;;1.97;87.17;96891.88;4127227;28;20236;-92
2022/12/16 02:09:37;;;;;;;35.97;21.13;;;;;;;1.97;86.98;96889.31;4110174;28;20205;-91
2022/12/16 02:12:17;;;;;;;35.03;20.90;;;;;;;2.02;87.26;96897.63;4126510;28;20259;-91
2022/12/16 02:14:29;;;;;;;30.27;18.77;;;;;;;1.99;87.34;96900.34;4111915;28;20243;-91
2022/12/16 02:16:36;;;;;;;35.95;20.85;;;;;;;2.01;87.40;96901.91;4113205;28;20200;-91
2022/12/16 02:18:48;;;;;;;32.42;20.05;;;;;;;2.01;87.31;96904.47;4100085;28;20396;-91
2022/12/16 02:21:21;;;;;;;34.40;19.88;;;;;;;2.02;87.17;96911.28;4098620;28;20288;-91
2022/12/16 02:23:58;;;;;;;33.60;19.60;;;;;;;2.05;87.24;96918.00;4115149;28;20208;-91
2022/12/16 02:26:32;;;;;;;30.42;19.70;;;;;;;2.02;88.06;96913.84;4065693;29;20234;-91
2022/12/16 02:28:54;;;;;;;32.20;19.83;;;;;;;2.03;87.55;96912.94;4119293;28;20229;-92
2022/12/16 02:31:11;;;;;;;31.80;19.88;;;;;;;2.03;88.22;96912.09;4111158;28;20807;-91
2022/12/16 02:33:46;;;;;;;34.47;20.52;;;;;;;2.05;87.75;96920.59;4100081;28;20227;-92
2022/12/16 02:35:58;;;;;;;36.38;20.15;;;;;;;2.02;87.38;96907.91;4061262;29;20262;-92
2022/12/16 02:38:11;;;;;;;34.38;21.15;;;;;;;2.04;87.24;96911.19;4070295;28;20680;-92
2022/12/16 02:40:17;;;;;;;33.05;20.35;;;;;;;1.96;87.60;96918.50;4115358;28;20686;-91
2022/12/16 02:42:26;;;;;;;36.22;21.00;;;;;;;1.91;87.89;96908.47;4113797;28;20236;-91
2022/12/16 02:44:33;;;;;;;32.75;20.40;;;;;;;1.93;87.61;96906.63;4111691;28;20208;-92
2022/12/16 02:46:41;;;;;;;34.45;20.33;;;;;;;1.96;88.25;96905.66;4107976;28;20213;-92
2022/12/16 02:48:44;;;;;;;35.95;21.30;;;;;;;1.99;88.39;96902.91;4109345;28;20256;-91
2022/12/16 02:50:56;;;;;;;36.15;21.33;;;;;;;1.98;88.22;96899.50;4111584;28;20219;-91
2022/12/16 02:53:01;;;;;;;36.65;21.75;;;;;;;1.99;88.48;96905.50;4129996;28;20227;-92
2022/12/16 02:55:07;;;;;;;36.00;22.50;;;;;;;1.97;88.11;96897.00;4109887;28;20641;-91
2022/12/16 02:57:23;;;;;;;33.35;21.08;;;;;;;2.00;87.98;96909.69;4113946;28;20565;-91
2022/12/16 02:59:29;;;;;;;35.28;21.40;;;;;;;2.01;88.45;96906.22;4089964;28;20653;-91
2022/12/16 03:01:36;;;;;;;39.63;24.25;;;;;;;2.02;88.02;96907.91;4111707;28;20624;-93
2022/12/16 03:03:44;;;;;;;31.83;20.05;;;;;;;1.99;87.99;96910.63;4113138;28;20209;-91
2022/12/16 03:05:49;;;;;;;33.35;21.48;;;;;;;2.01;88.32;96916.50;4099501;28;20227;-91
2022/12/16 03:07:52;;;;;;;35.53;21.85;;;;;;;2.01;88.45;96913.94;4103542;28;20320;-91
2022/12/16 03:09:56;;;;;;;34.33;21.83;;;;;;;2.01;88.08;96914.75;4144662;28;20195;-91
2022/12/16 03:12:01;;;;;;;36.35;22.02;;;;;;;2.04;88.74;96918.91;4128018;28;20205;-91
2022/12/16 03:14:06;;;;;;;35.60;22.00;;;;;;;2.05;88.10;96918.00;4129107;28;20208;-91
2022/12/16 03:16:11;;;;;;;33.97;20.50;;;;;;;2.03;88.32;96919.81;4125437;28;20241;-91
2022/12/16 03:18:15;;;;;;;37.45;22.20;;;;;;;2.02;88.27;96925.88;4130243;28;20239;-91
2022/12/16 03:20:24;;;;;;;31.63;20.67;;;;;;;2.02;87.98;96926.72;4113051;28;20239;-91
2022/12/16 03:22:28;;;;;;;36.28;21.33;;;;;;;2.05;88.28;96936.81;4111662;28;20205;-92
2022/12/16 03:24:32;;;;;;;35.50;21.45;;;;;;;2.02;88.24;96931.84;4131341;28;20208;-91
2022/12/16 03:26:40;;;;;;;35.88;20.73;;;;;;;2.05;88.10;96930.88;4122401;28;20204;-91
2022/12/16 03:28:49;;;;;;;31.83;21.42;;;;;;;2.06;88.11;96947.91;4124782;28;20228;-92
2022/12/16 03:30:55;;;;;;;36.42;22.70;;;;;;;2.03;87.67;96940.38;4126587;28;20203;-91
2022/12/16 03:33:02;;;;;;;36.83;21.98;;;;;;;2.03;88.01;96938.66;4112829;28;20211;-91
2022/12/16 03:35:13;;;;;;;34.95;20.70;;;;;;;2.06;88.11;96947.91;4129670;28;20683;-92
2022/12/16 03:37:20;;;;;;;32.50;20.20;;;;;;;2.07;88.14;96939.31;4114229;28;20200;-92
2022/12/16 03:39:25;;;;;;;33.80;20.85;;;;;;;2.05;87.85;96949.69;4146551;28;20616;-92
2022/12/16 03:41:30;;;;;;;37.05;22.55;;;;;;;2.03;87.88;96946.38;4140659;28;20192;-91
2022/12/16 03:43:33;;;;;;;33.10;21.02;;;;;;;2.06;87.74;96953.06;4130308;28;20270;-92
2022/12/16 03:45:39;;;;;;;34.92;21.92;;;;;;;2.05;87.82;96951.44;4116388;28;20208;-91
2022/12/16 03:47:42;;;;;;;36.97;21.85;;;;;;;2.06;87.65;96964.19;4113653;28;20625;-91
2022/12/16 03:49:46;;;;;;;38.58;22.50;;;;;;;2.03;87.78;96958.38;4110695;28;20692;-91
2022/12/16 03:51:49;;;;;;;37.95;21.48;;;;;;;2.06;88.00;96968.50;4107903;28;20212;-91
2022/12/16 03:53:53;;;;;;;34.75;21.70;;;;;;;2.05;87.74;96972.81;4112992;28;20205;-91
2022/12/16 03:55:56;;;;;;;38.20;22.00;;;;;;;2.07;88.44;96975.28;4109709;28;20201;-91
2022/12/16 03:58:01;;;;;;;41.97;22.85;;;;;;;2.06;87.74;96979.63;4110576;28;20204;-91
2022/12/16 04:00:05;;;;;;;40.00;22.15;;;;;;;2.02;87.71;96967.00;4114135;28;20232;-91
2022/12/16 04:02:13;;;;;;;34.22;21.33;;;;;;;2.01;87.81;96978.19;4128955;28;20208;-91
2022/12/16 04:04:17;;;;;;;37.90;22.83;;;;;;;2.00;87.38;96974.81;4129450;28;20196;-91
2022/12/16 04:06:20;;;;;;;41.83;23.88;;;;;;;2.04;87.25;96986.56;4112480;28;20311;-92
2022/12/16 04:08:23;;;;;;;34.53;21.65;;;;;;;2.03;87.62;96982.34;4126750;28;20235;-91
2022/12/16 04:24:35;;;;;;;35.17;21.30;;;;;;;1.95;87.63;96992.19;4129577;28;20703;-91
2022/12/16 04:28:56;;;;;;;31.88;20.38;;;;;;;1.92;86.92;97000.09;4112333;28;20766;-91
2022/12/16 04:31:00;;;;;;;33.92;21.08;;;;;;;1.90;87.14;97003.63;4126621;28;20208;-91
